createdAt,value
2019-02-05T00:00:14.331Z,19.37
2019-02-05T00:01:14.336Z,19.46
2019-02-05T00:02:14.344Z,19.37
2019-02-05T00:03:14.347Z,19.27
2019-02-05T00:04:14.352Z,19.18
2019-02-05T00:05:14.361Z,19.37
2019-02-05T00:06:14.369Z,19.46
2019-02-05T00:07:14.438Z,19.26
2019-02-05T00:08:14.375Z,19.27
2019-02-05T00:09:14.381Z,19.27
2019-02-05T00:10:14.386Z,19.27
2019-02-05T00:11:14.391Z,19.18
2019-02-05T00:12:14.409Z,19.18
2019-02-05T00:13:14.402Z,19.18
2019-02-05T00:14:14.407Z,19.27
2019-02-05T00:15:14.414Z,19.27
2019-02-05T00:16:14.421Z,19.46
2019-02-05T00:17:14.427Z,19.26
2019-02-05T00:18:14.429Z,19.18
2019-02-05T00:19:14.435Z,19.26
2019-02-05T00:20:14.441Z,19.26
2019-02-05T00:21:14.447Z,19.36
2019-02-05T00:22:14.453Z,19.27
2019-02-05T00:23:14.456Z,19.17
2019-02-05T00:24:14.462Z,19.36
2019-02-05T00:25:14.469Z,19.37
2019-02-05T00:26:14.476Z,19.36
2019-02-05T00:27:14.478Z,19.45
2019-02-05T00:28:14.485Z,19.26
2019-02-05T00:29:14.491Z,19.26
2019-02-05T00:30:14.500Z,19.46
2019-02-05T00:31:14.502Z,19.27
2019-02-05T00:32:14.506Z,19.17
2019-02-05T00:33:14.514Z,19.17
2019-02-05T00:34:14.517Z,19.17
2019-02-05T00:35:14.523Z,19.17
2019-02-05T00:36:14.528Z,19.27
2019-02-05T00:37:14.535Z,19.26
2019-02-05T00:38:14.540Z,19.07
2019-02-05T00:39:14.546Z,19.37
2019-02-05T00:40:14.550Z,19.27
2019-02-05T00:41:14.558Z,19.27
2019-02-05T00:42:14.566Z,19.27
2019-02-05T00:43:14.566Z,19.17
2019-02-05T00:44:14.573Z,19.17
2019-02-05T00:45:14.579Z,19.27
2019-02-05T00:46:14.585Z,19.17
2019-02-05T00:47:14.590Z,19.18
2019-02-05T00:48:14.596Z,19.07
2019-02-05T00:49:14.601Z,19.65
2019-02-05T00:50:14.607Z,19.65
2019-02-05T00:51:14.612Z,18.98
2019-02-05T00:52:14.622Z,19.17
2019-02-05T00:53:14.624Z,19.17
2019-02-05T00:54:14.629Z,19.84
2019-02-05T00:55:14.639Z,19.75
2019-02-05T00:56:17.770Z,19.74
2019-02-05T00:57:14.644Z,19.65
2019-02-05T00:58:14.652Z,19.75
2019-02-05T00:59:14.656Z,19.75
2019-02-05T01:00:14.663Z,19.36
2019-02-05T01:01:15.523Z,19.85
2019-02-05T01:02:14.675Z,19.36
2019-02-05T01:03:14.678Z,19.65
2019-02-05T01:04:14.684Z,19.56
2019-02-05T01:05:14.689Z,19.46
2019-02-05T01:06:14.694Z,19.75
2019-02-05T01:07:14.701Z,19.75
2019-02-05T01:08:14.709Z,19.85
2019-02-05T01:09:14.711Z,19.65
2019-02-05T01:10:14.717Z,19.85
2019-02-05T01:11:14.726Z,19.65
2019-02-05T01:12:14.728Z,19.84
2019-02-05T01:13:14.733Z,19.65
2019-02-05T01:14:14.740Z,19.74
2019-02-05T01:15:14.744Z,19.46
2019-02-05T01:16:14.753Z,19.07
2019-02-05T01:17:14.756Z,19.08
2019-02-05T01:18:14.761Z,19.55
2019-02-05T01:19:14.766Z,19.56
2019-02-05T01:20:14.776Z,19.65
2019-02-05T01:21:14.779Z,19.84
2019-02-05T01:22:14.814Z,19.74
2019-02-05T01:23:14.789Z,19.75
2019-02-05T01:24:14.795Z,19.74
2019-02-05T01:25:14.801Z,19.65
2019-02-05T01:26:14.806Z,19.37
2019-02-05T01:27:14.810Z,19.55
2019-02-05T01:28:14.815Z,19.65
2019-02-05T01:29:14.821Z,19.65
2019-02-05T01:30:14.828Z,19.74
2019-02-05T01:31:14.833Z,19.75
2019-02-05T01:32:14.838Z,19.84
2019-02-05T01:33:14.844Z,19.37
2019-02-05T01:34:14.851Z,19.74
2019-02-05T01:35:14.853Z,19.65
2019-02-05T01:36:14.873Z,19.84
2019-02-05T01:37:14.865Z,19.74
2019-02-05T01:38:14.872Z,19.74
2019-02-05T01:39:14.875Z,19.93
2019-02-05T01:40:14.886Z,19.74
2019-02-05T01:41:14.888Z,19.65
2019-02-05T01:42:14.895Z,19.95
2019-02-05T01:43:14.899Z,19.56
2019-02-05T01:44:14.904Z,20.04
2019-02-05T01:45:14.911Z,19.84
2019-02-05T01:46:14.916Z,20.13
2019-02-05T01:47:14.921Z,20.04
2019-02-05T01:48:14.931Z,19.84
2019-02-05T01:49:14.937Z,19.95
2019-02-05T01:50:14.944Z,20.13
2019-02-05T01:51:14.946Z,19.85
2019-02-05T01:52:14.947Z,20.03
2019-02-05T01:53:14.954Z,19.74
2019-02-05T01:54:14.963Z,19.93
2019-02-05T01:55:14.965Z,19.95
2019-02-05T01:56:15.000Z,19.93
2019-02-05T01:57:14.976Z,20.03
2019-02-05T01:58:14.981Z,19.93
2019-02-05T01:59:14.987Z,20.03
2019-02-05T02:00:14.994Z,19.55
2019-02-05T02:01:15.001Z,19.93
2019-02-05T02:02:15.004Z,19.93
2019-02-05T02:03:15.009Z,20.03
2019-02-05T02:04:15.014Z,20.13
2019-02-05T02:05:15.020Z,20.13
2019-02-05T02:06:15.029Z,19.93
2019-02-05T02:07:15.031Z,20.03
2019-02-05T02:08:15.039Z,19.93
2019-02-05T02:09:15.103Z,19.93
2019-02-05T02:10:15.048Z,20.03
2019-02-05T02:11:15.051Z,20.03
2019-02-05T02:12:15.059Z,19.55
2019-02-05T02:13:15.064Z,19.55
2019-02-05T02:14:15.069Z,20.03
2019-02-05T02:15:15.074Z,20.03
2019-02-05T02:16:15.080Z,19.93
2019-02-05T02:17:15.090Z,20.13
2019-02-05T02:18:15.091Z,19.93
2019-02-05T02:19:15.099Z,19.84
2019-02-05T02:20:15.102Z,19.36
2019-02-05T02:21:15.108Z,19.65
2019-02-05T02:22:15.112Z,19.84
2019-02-05T02:23:15.118Z,19.93
2019-02-05T02:24:15.124Z,20.13
2019-02-05T02:25:15.128Z,20.03
2019-02-05T02:26:15.135Z,19.84
2019-02-05T02:27:15.140Z,19.74
2019-02-05T02:28:15.146Z,19.93
2019-02-05T02:29:15.151Z,19.93
2019-02-05T02:30:15.165Z,19.55
2019-02-05T02:31:15.164Z,19.84
2019-02-05T02:32:15.170Z,19.65
2019-02-05T02:33:15.174Z,19.93
2019-02-05T02:34:15.179Z,19.74
2019-02-05T02:35:15.191Z,19.74
2019-02-05T02:36:15.189Z,19.84
2019-02-05T02:37:15.194Z,19.84
2019-02-05T02:38:15.206Z,19.55
2019-02-05T02:39:15.207Z,19.74
2019-02-05T02:40:15.215Z,19.93
2019-02-05T02:41:15.217Z,20.03
2019-02-05T02:42:15.222Z,19.93
2019-02-05T02:43:15.230Z,20.03
2019-02-05T02:44:15.233Z,19.93
2019-02-05T02:45:15.239Z,19.65
2019-02-05T02:46:15.246Z,20.03
2019-02-05T02:47:15.249Z,19.84
2019-02-05T02:48:15.258Z,19.65
2019-02-05T02:49:15.262Z,20.23
2019-02-05T02:50:15.265Z,19.84
2019-02-05T02:51:15.270Z,19.55
2019-02-05T02:52:15.277Z,19.93
2019-02-05T02:53:15.283Z,19.65
2019-02-05T02:54:15.288Z,19.65
2019-02-05T02:55:15.294Z,20.13
2019-02-05T02:56:15.298Z,19.65
2019-02-05T02:57:15.306Z,19.65
2019-02-05T02:58:15.320Z,19.65
2019-02-05T02:59:15.314Z,19.65
2019-02-05T03:00:15.320Z,20.13
2019-02-05T03:01:15.447Z,20.13
2019-02-05T03:02:15.332Z,19.93
2019-02-05T03:03:15.336Z,20.13
2019-02-05T03:04:15.344Z,19.93
2019-02-05T03:05:15.352Z,19.93
2019-02-05T03:06:15.353Z,20.03
2019-02-05T03:07:15.358Z,20.13
2019-02-05T03:08:15.365Z,19.93
2019-02-05T03:09:15.370Z,19.74
2019-02-05T03:10:15.375Z,20.13
2019-02-05T03:11:15.379Z,20.13
2019-02-05T03:12:15.385Z,20.03
2019-02-05T03:13:15.392Z,20.03
2019-02-05T03:14:15.401Z,19.65
2019-02-05T03:15:15.401Z,20.13
2019-02-05T03:16:15.656Z,19.74
2019-02-05T03:17:15.412Z,19.93
2019-02-05T03:18:15.419Z,20.23
2019-02-05T03:19:15.424Z,19.74
2019-02-05T03:20:15.432Z,20.03
2019-02-05T03:21:15.435Z,19.74
2019-02-05T03:22:15.442Z,19.74
2019-02-05T03:23:15.443Z,19.74
2019-02-05T03:24:15.450Z,20.42
2019-02-05T03:25:15.456Z,20.13
2019-02-05T03:26:15.462Z,19.65
2019-02-05T03:27:17.922Z,19.74
2019-02-05T03:28:15.475Z,20.13
2019-02-05T03:29:15.479Z,19.74
2019-02-05T03:30:15.485Z,20.13
2019-02-05T03:31:15.492Z,20.42
2019-02-05T03:32:15.494Z,20.03
2019-02-05T03:33:15.501Z,20.42
2019-02-05T03:34:15.505Z,19.74
2019-02-05T03:35:15.509Z,20.42
2019-02-05T03:36:15.516Z,20.13
2019-02-05T03:37:15.521Z,19.93
2019-02-05T03:38:15.527Z,19.84
2019-02-05T03:39:15.530Z,20.42
2019-02-05T03:40:15.537Z,20.13
2019-02-05T03:41:15.542Z,19.93
2019-02-05T03:42:15.548Z,20.03
2019-02-05T03:43:15.554Z,19.93
2019-02-05T03:44:15.558Z,20.03
2019-02-05T03:45:15.564Z,19.93
2019-02-05T03:46:15.576Z,19.93
2019-02-05T03:47:15.575Z,19.84
2019-02-05T03:48:15.579Z,20.23
2019-02-05T03:49:15.585Z,20.13
2019-02-05T03:50:15.591Z,20.13
2019-02-05T03:51:15.910Z,20.23
2019-02-05T03:52:15.600Z,19.93
2019-02-05T03:53:15.605Z,19.93
2019-02-05T03:54:15.616Z,19.84
2019-02-05T03:55:15.617Z,19.93
2019-02-05T03:56:15.625Z,20.13
2019-02-05T03:57:15.628Z,20.03
2019-02-05T03:58:15.633Z,19.84
2019-02-05T03:59:15.640Z,19.84
2019-02-05T04:00:15.682Z,19.74
2019-02-05T04:01:15.650Z,19.93
2019-02-05T04:02:15.662Z,19.84
2019-02-05T04:03:15.674Z,19.93
2019-02-05T04:04:15.666Z,20.03
2019-02-05T04:05:15.671Z,20.13
2019-02-05T04:06:15.678Z,20.23
2019-02-05T04:07:15.683Z,20.13
2019-02-05T04:08:15.687Z,20.13
2019-02-05T04:09:15.693Z,20.23
2019-02-05T04:10:15.700Z,20.13
2019-02-05T04:11:15.953Z,20.23
2019-02-05T04:12:15.710Z,20.13
2019-02-05T04:13:15.715Z,20.03
2019-02-05T04:14:15.720Z,20.23
2019-02-05T04:15:15.725Z,20.03
2019-02-05T04:16:15.735Z,20.13
2019-02-05T04:17:15.737Z,19.93
2019-02-05T04:18:15.744Z,19.84
2019-02-05T04:19:15.747Z,20.13
2019-02-05T04:20:15.774Z,20.32
2019-02-05T04:21:15.760Z,20.42
2019-02-05T04:22:15.763Z,20.23
2019-02-05T04:23:15.768Z,20.13
2019-02-05T04:24:15.773Z,20.32
2019-02-05T04:25:15.778Z,20.51
2019-02-05T04:26:15.785Z,20.90
2019-02-05T04:27:15.791Z,20.32
2019-02-05T04:28:15.806Z,20.42
2019-02-05T04:29:15.800Z,20.42
2019-02-05T04:30:15.809Z,20.42
2019-02-05T04:31:15.811Z,20.32
2019-02-05T04:32:15.820Z,20.23
2019-02-05T04:33:15.823Z,20.61
2019-02-05T04:34:15.827Z,20.32
2019-02-05T04:35:15.831Z,20.61
2019-02-05T04:36:15.838Z,20.90
2019-02-05T04:37:15.843Z,20.42
2019-02-05T04:38:15.850Z,20.80
2019-02-05T04:39:15.853Z,20.80
2019-02-05T04:40:15.858Z,20.90
2019-02-05T04:41:15.865Z,20.51
2019-02-05T04:42:15.871Z,20.80
2019-02-05T04:43:15.882Z,21.00
2019-02-05T04:44:15.882Z,20.80
2019-02-05T04:45:15.887Z,20.61
2019-02-05T04:46:15.892Z,20.80
2019-02-05T04:47:15.897Z,21.00
2019-02-05T04:48:15.902Z,20.32
2019-02-05T04:49:15.910Z,20.70
2019-02-05T04:50:15.922Z,20.80
2019-02-05T04:51:15.918Z,20.90
2019-02-05T04:52:15.926Z,21.38
2019-02-05T04:53:15.930Z,21.28
2019-02-05T04:54:15.935Z,21.38
2019-02-05T04:55:15.938Z,21.09
2019-02-05T04:56:15.946Z,20.80
2019-02-05T04:57:15.949Z,20.80
2019-02-05T04:58:15.958Z,20.61
2019-02-05T04:59:15.960Z,20.61
2019-02-05T05:00:15.967Z,20.70
2019-02-05T05:01:15.972Z,20.80
2019-02-05T05:02:15.977Z,21.00
2019-02-05T05:03:15.981Z,20.61
2019-02-05T05:04:15.988Z,20.90
2019-02-05T05:05:15.994Z,20.70
2019-02-05T05:06:16.000Z,20.80
2019-02-05T05:07:16.254Z,20.90
2019-02-05T05:08:16.012Z,21.09
2019-02-05T05:09:16.018Z,20.70
2019-02-05T05:10:16.025Z,20.80
2019-02-05T05:11:16.029Z,20.70
2019-02-05T05:12:16.032Z,20.90
2019-02-05T05:13:16.036Z,20.90
2019-02-05T05:14:16.043Z,20.80
2019-02-05T05:15:16.052Z,21.00
2019-02-05T05:16:16.053Z,20.90
2019-02-05T05:17:16.058Z,20.90
2019-02-05T05:18:16.064Z,21.00
2019-02-05T05:19:16.069Z,20.90
2019-02-05T05:20:16.076Z,21.38
2019-02-05T05:21:16.081Z,21.48
2019-02-05T05:22:16.087Z,21.38
2019-02-05T05:23:16.091Z,21.38
2019-02-05T05:24:16.096Z,21.28
2019-02-05T05:25:16.102Z,21.00
2019-02-05T05:26:16.106Z,21.09
2019-02-05T05:27:16.116Z,20.90
2019-02-05T05:28:16.118Z,21.28
2019-02-05T05:29:16.124Z,21.19
2019-02-05T05:30:16.129Z,21.28
2019-02-05T05:31:16.200Z,21.28
2019-02-05T05:32:16.139Z,21.28
2019-02-05T05:33:16.145Z,21.28
2019-02-05T05:34:16.150Z,21.67
2019-02-05T05:35:16.158Z,21.58
2019-02-05T05:36:16.161Z,21.38
2019-02-05T05:37:16.169Z,21.67
2019-02-05T05:38:16.173Z,21.67
2019-02-05T05:39:16.181Z,21.09
2019-02-05T05:40:16.183Z,21.48
2019-02-05T05:41:16.190Z,21.19
2019-02-05T05:42:16.193Z,21.19
2019-02-05T05:43:16.199Z,21.77
2019-02-05T05:44:16.205Z,21.58
2019-02-05T05:45:16.210Z,21.58
2019-02-05T05:46:16.218Z,21.28
2019-02-05T05:47:16.222Z,21.58
2019-02-05T05:48:16.226Z,21.58
2019-02-05T05:49:16.239Z,21.28
2019-02-05T05:50:16.237Z,21.09
2019-02-05T05:51:16.247Z,21.19
2019-02-05T05:52:16.248Z,21.09
2019-02-05T05:53:16.254Z,21.09
2019-02-05T05:54:16.259Z,21.67
2019-02-05T05:55:16.265Z,21.09
2019-02-05T05:56:16.270Z,21.28
2019-02-05T05:57:18.719Z,21.48
2019-02-05T05:58:23.032Z,21.19
2019-02-05T05:59:16.287Z,21.28
2019-02-05T06:00:16.290Z,21.28
2019-02-05T06:01:16.297Z,21.28
2019-02-05T06:02:16.552Z,21.67
2019-02-05T06:03:16.310Z,21.19
2019-02-05T06:04:16.313Z,21.67
2019-02-05T06:05:16.319Z,21.67
2019-02-05T06:06:16.325Z,21.58
2019-02-05T06:07:16.392Z,21.58
2019-02-05T06:08:16.335Z,21.19
2019-02-05T06:09:16.344Z,21.19
2019-02-05T06:10:16.346Z,21.58
2019-02-05T06:11:16.352Z,21.58
2019-02-05T06:12:16.357Z,21.96
2019-02-05T06:13:16.371Z,21.77
2019-02-05T06:14:16.368Z,21.96
2019-02-05T06:15:16.373Z,21.77
2019-02-05T06:16:16.378Z,21.48
2019-02-05T06:17:16.383Z,21.38
2019-02-05T06:18:16.390Z,21.48
2019-02-05T06:19:16.398Z,21.67
2019-02-05T06:20:16.400Z,21.38
2019-02-05T06:21:16.407Z,21.67
2019-02-05T06:22:16.411Z,21.38
2019-02-05T06:23:16.417Z,21.28
2019-02-05T06:24:16.425Z,21.67
2019-02-05T06:25:16.799Z,21.58
2019-02-05T06:26:16.436Z,21.58
2019-02-05T06:27:16.439Z,21.58
2019-02-05T06:28:16.445Z,21.77
2019-02-05T06:29:16.450Z,21.38
2019-02-05T06:30:16.455Z,21.67
2019-02-05T06:31:16.461Z,21.58
2019-02-05T06:32:16.467Z,21.67
2019-02-05T06:33:16.474Z,21.19
2019-02-05T06:34:16.479Z,21.19
2019-02-05T06:35:16.483Z,21.28
2019-02-05T06:36:16.490Z,21.09
2019-02-05T06:37:16.498Z,20.80
2019-02-05T06:38:16.498Z,21.19
2019-02-05T06:39:16.622Z,21.28
2019-02-05T06:40:16.547Z,21.09
2019-02-05T06:41:16.519Z,21.09
2019-02-05T06:42:16.822Z,21.28
2019-02-05T06:43:16.527Z,21.00
2019-02-05T06:44:16.533Z,20.80
2019-02-05T06:45:16.539Z,21.28
2019-02-05T06:46:16.542Z,21.28
2019-02-05T06:47:16.550Z,21.09
2019-02-05T06:48:16.704Z,20.80
2019-02-05T06:49:16.560Z,20.90
2019-02-05T06:50:16.564Z,21.19
2019-02-05T06:51:16.568Z,20.90
2019-02-05T06:52:16.576Z,20.90
2019-02-05T06:53:16.584Z,20.90
2019-02-05T06:54:16.586Z,20.80
2019-02-05T06:55:16.592Z,20.90
2019-02-05T06:56:16.598Z,20.90
2019-02-05T06:57:16.603Z,21.00
2019-02-05T06:58:16.612Z,20.90
2019-02-05T06:59:16.618Z,20.90
2019-02-05T07:00:16.618Z,21.00
2019-02-05T07:01:16.625Z,21.00
2019-02-05T07:02:16.630Z,20.90
2019-02-05T07:03:16.636Z,20.80
2019-02-05T07:04:16.641Z,20.80
2019-02-05T07:05:16.800Z,21.19
2019-02-05T07:06:16.657Z,21.19
2019-02-05T07:07:16.662Z,20.80
2019-02-05T07:08:16.662Z,20.90
2019-02-05T07:09:16.669Z,21.00
2019-02-05T07:10:16.673Z,20.80
2019-02-05T07:11:16.678Z,21.09
2019-02-05T07:12:16.684Z,20.90
2019-02-05T07:13:16.991Z,21.00
2019-02-05T07:14:16.696Z,21.00
2019-02-05T07:15:16.713Z,21.09
2019-02-05T07:16:16.705Z,20.90
2019-02-05T07:17:16.712Z,20.61
2019-02-05T07:18:16.968Z,20.80
2019-02-05T07:19:16.723Z,20.51
2019-02-05T07:20:16.727Z,21.09
2019-02-05T07:21:16.735Z,20.90
2019-02-05T07:22:16.739Z,20.70
2019-02-05T07:23:17.043Z,21.09
2019-02-05T07:24:16.750Z,20.61
2019-02-05T07:25:16.754Z,20.70
2019-02-05T07:26:16.760Z,20.61
2019-02-05T07:27:16.765Z,20.61
2019-02-05T07:28:16.771Z,20.70
2019-02-05T07:29:16.778Z,20.61
2019-02-05T07:30:16.783Z,20.80
2019-02-05T07:31:16.788Z,20.70
2019-02-05T07:32:16.793Z,20.70
2019-02-05T07:33:16.895Z,20.70
2019-02-05T07:34:16.805Z,21.09
2019-02-05T07:35:16.809Z,20.61
2019-02-05T07:36:16.815Z,20.91
2019-02-05T07:37:16.821Z,20.80
2019-02-05T07:38:16.832Z,20.80
2019-02-05T07:39:16.832Z,20.61
2019-02-05T07:40:16.838Z,20.70
2019-02-05T07:41:16.843Z,20.62
2019-02-05T07:42:16.848Z,20.91
2019-02-05T07:43:16.857Z,20.70
2019-02-05T07:44:16.975Z,20.90
2019-02-05T07:45:16.864Z,20.70
2019-02-05T07:46:16.871Z,20.80
2019-02-05T07:47:16.876Z,20.81
2019-02-05T07:48:16.881Z,21.00
2019-02-05T07:49:16.888Z,20.90
2019-02-05T07:50:16.892Z,21.09
2019-02-05T07:51:16.897Z,20.80
2019-02-05T07:52:16.903Z,20.90
2019-02-05T07:53:16.909Z,20.61
2019-02-05T07:54:16.978Z,20.90
2019-02-05T07:55:16.919Z,20.81
2019-02-05T07:56:16.930Z,20.51
2019-02-05T07:57:16.930Z,20.81
2019-02-05T07:58:16.936Z,20.80
2019-02-05T07:59:16.940Z,20.91
2019-02-05T08:00:16.947Z,20.91
2019-02-05T08:01:17.672Z,20.62
2019-02-05T08:02:16.958Z,20.91
2019-02-05T08:03:16.963Z,20.91
2019-02-05T08:04:16.968Z,20.72
2019-02-05T08:05:16.974Z,20.62
2019-02-05T08:06:16.982Z,20.61
2019-02-05T08:07:16.983Z,20.61
2019-02-05T08:08:16.990Z,20.80
2019-02-05T08:09:16.996Z,20.72
2019-02-05T08:10:17.005Z,20.72
2019-02-05T08:11:17.006Z,20.61
2019-02-05T08:12:17.012Z,20.70
2019-02-05T08:13:17.018Z,20.80
2019-02-05T08:14:17.023Z,20.43
2019-02-05T08:15:17.028Z,20.43
2019-02-05T08:16:17.035Z,20.42
2019-02-05T08:17:17.041Z,20.43
2019-02-05T08:18:17.046Z,20.42
2019-02-05T08:19:17.050Z,20.42
2019-02-05T08:20:17.056Z,20.53
2019-02-05T08:21:17.062Z,20.62
2019-02-05T08:22:17.067Z,20.61
2019-02-05T08:23:17.072Z,20.51
2019-02-05T08:24:17.079Z,20.70
2019-02-05T08:25:17.179Z,20.81
2019-02-05T08:26:17.090Z,20.70
2019-02-05T08:27:17.094Z,20.32
2019-02-05T08:28:17.101Z,20.32
2019-02-05T08:29:21.807Z,20.70
2019-02-05T08:30:17.112Z,20.61
2019-02-05T08:31:17.116Z,20.32
2019-02-05T08:32:17.122Z,20.32
2019-02-05T08:33:17.127Z,20.42
2019-02-05T08:34:17.133Z,20.42
2019-02-05T08:35:17.139Z,20.42
2019-02-05T08:36:17.143Z,20.23
2019-02-05T08:37:17.150Z,20.32
2019-02-05T08:38:17.155Z,20.33
2019-02-05T08:39:17.960Z,20.32
2019-02-05T08:40:17.166Z,20.32
2019-02-05T08:41:17.171Z,20.23
2019-02-05T08:42:17.177Z,20.23
2019-02-05T08:43:17.285Z,20.23
2019-02-05T08:44:17.187Z,20.32
2019-02-05T08:45:17.193Z,20.14
2019-02-05T08:46:17.198Z,20.51
2019-02-05T08:47:17.203Z,20.14
2019-02-05T08:48:17.207Z,20.23
2019-02-05T08:49:17.215Z,20.13
2019-02-05T08:50:17.219Z,20.23
2019-02-05T08:51:17.225Z,20.23
2019-02-05T08:52:17.231Z,20.14
2019-02-05T08:53:17.236Z,20.23
2019-02-05T08:54:17.241Z,20.14
2019-02-05T08:55:17.247Z,20.13
2019-02-05T08:56:17.254Z,20.13
2019-02-05T08:57:17.258Z,20.13
2019-02-05T08:58:17.265Z,20.03
2019-02-05T08:59:17.269Z,20.13
2019-02-05T09:00:17.275Z,20.13
2019-02-05T09:01:17.281Z,19.95
2019-02-05T09:02:17.287Z,20.13
2019-02-05T09:03:17.291Z,20.13
2019-02-05T09:04:17.296Z,19.93
2019-02-05T09:05:17.303Z,20.03
2019-02-05T09:06:17.308Z,19.85
2019-02-05T09:07:17.311Z,20.04
2019-02-05T09:08:17.319Z,19.93
2019-02-05T09:09:17.325Z,19.93
2019-02-05T09:10:17.330Z,19.85
2019-02-05T09:11:17.335Z,19.95
2019-02-05T09:12:18.022Z,19.93
2019-02-05T09:13:17.346Z,19.93
2019-02-05T09:14:17.351Z,20.13
2019-02-05T09:15:28.872Z,20.13
2019-02-05T09:16:17.362Z,19.84
2019-02-05T09:17:17.368Z,19.93
2019-02-05T09:18:17.373Z,19.93
2019-02-05T09:19:17.378Z,19.95
2019-02-05T09:20:17.384Z,19.93
2019-02-05T09:21:17.389Z,20.23
2019-02-05T09:22:17.394Z,20.14
2019-02-05T09:23:17.400Z,20.23
2019-02-05T09:24:17.406Z,20.23
2019-02-05T09:25:17.413Z,20.13
2019-02-05T09:26:17.418Z,20.23
2019-02-05T09:27:17.423Z,20.04
2019-02-05T09:28:17.427Z,19.95
2019-02-05T09:29:17.434Z,19.95
2019-02-05T09:30:17.439Z,19.93
2019-02-05T09:31:17.444Z,20.04
2019-02-05T09:32:17.451Z,20.23
2019-02-05T09:33:17.455Z,19.93
2019-02-05T09:34:17.460Z,19.93
2019-02-05T09:35:17.465Z,19.95
2019-02-05T09:36:17.472Z,20.61
2019-02-05T09:37:17.477Z,20.53
2019-02-05T09:38:17.483Z,20.53
2019-02-05T09:39:17.489Z,20.43
2019-02-05T09:40:17.493Z,20.33
2019-02-05T09:41:17.499Z,20.23
2019-02-05T09:42:17.505Z,20.23
2019-02-05T09:43:17.509Z,20.53
2019-02-05T09:44:17.514Z,20.62
2019-02-05T09:45:17.595Z,20.62
2019-02-05T09:46:17.595Z,21.01
2019-02-05T09:47:17.531Z,20.81
2019-02-05T09:48:17.536Z,20.90
2019-02-05T09:49:17.542Z,20.72
2019-02-05T09:50:17.547Z,20.72
2019-02-05T09:51:17.553Z,20.72
2019-02-05T09:52:17.664Z,20.81
2019-02-05T09:53:17.565Z,21.00
2019-02-05T09:54:17.569Z,20.91
2019-02-05T09:55:17.576Z,20.81
2019-02-05T09:56:17.593Z,20.81
2019-02-05T09:57:17.586Z,21.10
2019-02-05T09:58:17.650Z,21.28
2019-02-05T09:59:17.597Z,20.91
2019-02-05T10:00:17.602Z,21.01
2019-02-05T10:01:17.610Z,20.81
2019-02-05T10:02:17.613Z,20.72
2019-02-05T10:03:17.619Z,20.91
2019-02-05T10:04:17.624Z,20.91
2019-02-05T10:05:17.630Z,20.72
2019-02-05T10:06:17.638Z,20.91
2019-02-05T10:07:17.640Z,20.70
2019-02-05T10:08:17.647Z,20.91
2019-02-05T10:09:17.651Z,21.20
2019-02-05T10:10:17.659Z,21.58
2019-02-05T10:11:17.764Z,22.15
2019-02-05T10:12:17.668Z,22.25
2019-02-05T10:13:17.674Z,22.06
2019-02-05T10:14:17.683Z,22.55
2019-02-05T10:15:17.685Z,22.53
2019-02-05T10:16:17.767Z,22.53
2019-02-05T10:17:17.758Z,22.44
2019-02-05T10:18:17.702Z,22.73
2019-02-05T10:19:17.706Z,22.74
2019-02-05T10:20:17.713Z,22.64
2019-02-05T10:21:17.720Z,22.55
2019-02-05T10:22:17.724Z,22.64
2019-02-05T10:23:17.730Z,22.36
2019-02-05T10:24:17.735Z,22.26
2019-02-05T10:25:17.740Z,22.26
2019-02-05T10:26:17.746Z,21.97
2019-02-05T10:27:17.751Z,21.97
2019-02-05T10:28:17.756Z,22.06
2019-02-05T10:29:17.762Z,21.97
2019-02-05T10:30:17.768Z,21.88
2019-02-05T10:31:17.772Z,21.88
2019-02-05T10:32:17.779Z,21.78
2019-02-05T10:33:17.785Z,21.68
2019-02-05T10:34:17.790Z,21.68
2019-02-05T10:35:17.801Z,21.88
2019-02-05T10:36:17.802Z,21.68
2019-02-05T10:37:17.808Z,21.58
2019-02-05T10:38:17.812Z,21.68
2019-02-05T10:39:17.818Z,21.48
2019-02-05T10:40:17.821Z,21.58
2019-02-05T10:41:17.948Z,21.86
2019-02-05T10:42:17.833Z,21.78
2019-02-05T10:43:17.840Z,21.68
2019-02-05T10:44:17.844Z,21.48
2019-02-05T10:45:17.851Z,21.77
2019-02-05T10:46:17.857Z,21.88
2019-02-05T10:47:17.861Z,21.68
2019-02-05T10:48:17.868Z,21.58
2019-02-05T10:49:17.873Z,21.48
2019-02-05T10:50:17.879Z,21.58
2019-02-05T10:51:17.885Z,21.68
2019-02-05T10:52:17.889Z,21.68
2019-02-05T10:53:17.896Z,21.58
2019-02-05T10:54:17.901Z,21.78
2019-02-05T10:55:17.906Z,21.67
2019-02-05T10:56:17.911Z,21.30
2019-02-05T10:57:17.917Z,21.77
2019-02-05T10:58:17.922Z,21.28
2019-02-05T10:59:17.952Z,21.30
2019-02-05T11:00:17.932Z,21.58
2019-02-05T11:01:17.939Z,21.20
2019-02-05T11:02:17.945Z,21.19
2019-02-05T11:03:17.949Z,21.48
2019-02-05T11:04:18.067Z,21.28
2019-02-05T11:05:17.961Z,21.19
2019-02-05T11:06:19.999Z,21.19
2019-02-05T11:07:17.972Z,21.19
2019-02-05T11:08:17.977Z,21.38
2019-02-05T11:09:17.983Z,21.01
2019-02-05T11:10:17.990Z,20.80
2019-02-05T11:11:18.004Z,21.19
2019-02-05T11:12:17.999Z,21.09
2019-02-05T11:13:18.915Z,20.80
2019-02-05T11:14:18.011Z,21.10
2019-02-05T11:15:18.100Z,20.90
2019-02-05T11:16:18.023Z,21.00
2019-02-05T11:17:18.027Z,20.90
2019-02-05T11:18:18.033Z,21.00
2019-02-05T11:19:18.038Z,20.80
2019-02-05T11:20:18.043Z,20.72
2019-02-05T11:21:18.073Z,20.62
2019-02-05T11:22:18.055Z,20.70
2019-02-05T11:23:18.062Z,20.51
2019-02-05T11:24:18.065Z,20.51
2019-02-05T11:25:18.071Z,20.61
2019-02-05T11:26:18.200Z,20.80
2019-02-05T11:27:18.082Z,20.72
2019-02-05T11:28:18.087Z,20.90
2019-02-05T11:29:18.095Z,20.61
2019-02-05T11:30:20.353Z,20.80
2019-02-05T11:31:18.103Z,20.70
2019-02-05T11:32:18.109Z,20.80
2019-02-05T11:33:18.115Z,20.51
2019-02-05T11:34:18.119Z,20.61
2019-02-05T11:35:18.126Z,20.90
2019-02-05T11:36:18.130Z,20.43
2019-02-05T11:37:18.137Z,20.61
2019-02-05T11:38:18.147Z,20.42
2019-02-05T11:39:18.148Z,20.70
2019-02-05T11:40:18.153Z,20.33
2019-02-05T11:41:18.371Z,20.53
2019-02-05T11:42:18.164Z,20.32
2019-02-05T11:43:18.168Z,20.32
2019-02-05T11:44:18.180Z,20.42
2019-02-05T11:45:18.182Z,20.42
2019-02-05T11:46:18.189Z,20.23
2019-02-05T11:47:18.193Z,20.23
2019-02-05T11:48:18.199Z,20.13
2019-02-05T11:49:18.203Z,20.23
2019-02-05T11:50:18.209Z,20.42
2019-02-05T11:51:18.212Z,20.51
2019-02-05T11:52:18.219Z,20.32
2019-02-05T11:53:18.224Z,20.32
2019-02-05T11:54:18.233Z,20.32
2019-02-05T11:55:18.236Z,20.13
2019-02-05T11:56:18.545Z,20.03
2019-02-05T11:57:18.246Z,20.23
2019-02-05T11:58:18.252Z,20.13
2019-02-05T11:59:18.257Z,20.23
2019-02-05T12:00:18.262Z,20.23
2019-02-05T12:01:18.267Z,20.32
2019-02-05T12:02:18.274Z,20.32
2019-02-05T12:03:18.280Z,20.13
2019-02-05T12:04:18.392Z,20.03
2019-02-05T12:05:18.290Z,20.23
2019-02-05T12:06:18.296Z,20.03
2019-02-05T12:07:18.301Z,20.23
2019-02-05T12:08:18.813Z,20.23
2019-02-05T12:09:18.315Z,20.03
2019-02-05T12:10:18.426Z,19.84
2019-02-05T12:11:18.326Z,20.03
2019-02-05T12:12:18.328Z,20.13
2019-02-05T12:13:18.332Z,19.93
2019-02-05T12:14:18.341Z,19.84
2019-02-05T12:15:18.348Z,19.74
2019-02-05T12:16:18.350Z,19.84
2019-02-05T12:17:18.355Z,19.93
2019-02-05T12:18:18.362Z,19.93
2019-02-05T12:19:18.366Z,20.03
2019-02-05T12:20:18.371Z,20.03
2019-02-05T12:21:18.378Z,20.03
2019-02-05T12:22:18.383Z,20.03
2019-02-05T12:23:18.418Z,19.74
2019-02-05T12:24:18.466Z,20.13
2019-02-05T12:25:18.400Z,19.74
2019-02-05T12:26:18.405Z,19.74
2019-02-05T12:27:20.343Z,19.74
2019-02-05T12:28:18.415Z,19.74
2019-02-05T12:29:18.421Z,20.03
2019-02-05T12:30:18.428Z,20.03
2019-02-05T12:31:18.433Z,20.03
2019-02-05T12:32:18.437Z,19.74
2019-02-05T12:33:18.443Z,19.74
2019-02-05T12:34:18.449Z,20.23
2019-02-05T12:35:18.452Z,19.74
2019-02-05T12:36:18.459Z,20.13
2019-02-05T12:37:18.463Z,19.84
2019-02-05T12:38:18.469Z,20.13
2019-02-05T12:39:18.513Z,20.03
2019-02-05T12:40:18.481Z,19.93
2019-02-05T12:41:51.695Z,19.74
2019-02-05T12:42:18.492Z,19.84
2019-02-05T12:43:18.498Z,20.23
2019-02-05T12:44:18.506Z,19.93
2019-02-05T12:45:18.510Z,20.23
2019-02-05T12:46:18.515Z,20.03
2019-02-05T12:47:18.518Z,19.55
2019-02-05T12:48:18.522Z,20.03
2019-02-05T12:49:18.533Z,20.23
2019-02-05T12:50:18.539Z,20.13
2019-02-05T12:51:18.540Z,19.84
2019-02-05T12:52:18.546Z,20.03